Loch Glascarnoch, United Kingdom

4:58 AM BST on September 27, 2016 (GMT +0100)
Garve | | Change Station

Elev 262 ft 57.62 °N, 4.69 °W | Updated 11 seconds ago

Partly Cloudy
Partly Cloudy
50.5 °F
Feels Like 50.5 °F
N
2.9
Wind Variable Wind from NE
Gusts 4.9 mph

Today
High -- | Low -- °F
--% Chance of Precip.
Yesterday
High -- | Low -- °F
Precip. -- in
Pressure 29.83 in
Visibility 6.2 miles
Clouds Few 2000 ft
Dew Point 46 °F
Humidity 84%
Rainfall 0.00 in
Snow Depth Not available.
7:15 AM 7:03 PM
Waning Crescent, 14% visible
METAR EGPE 270350Z 00000KT 9999 FEW020 10/07 Q1010
Pressure 29.83 in
Visibility 6.2 miles
Clouds Few 2000 ft
Dew Point 46 °F
Humidity 84%
Rainfall 0.00 in
Snow Depth Not available.
7:15 AM 7:03 PM
Waning Crescent, 14% visible
METAR EGPE 270350Z 00000KT 9999 FEW020 10/07 Q1010

10-Day Weather Forecast

×

Almanac

Astronomy

Sep. 27, 2016 Rise Set
Actual Time
Civil Twilight
Nautical Twilight
Astronomical Twilight
Moon
Length of Visible Light
Length of Day
Tomorrow will be .
, % of the Moon is Illuminated

Today's Extremes

Country Highs Country Lows

Community

WunderPhotos

Upload Photos

1,942,029 photos uploaded!

WunderBlog® & News

Nearby

Air Quality

  Air Quality AQ Index Pollutant
Not available.

Snow Depth

Station Depth Elevation

Earthquake Activity

City Distance Mag. Time & Date
Minimum magnitude displayed is 2.5.

Coastal Water Temperatures

Place Temperature

Stations

Nearby Weather Stations

Station Location Temp. Windchill Dew Point Humidity Wind Precip. Elev Updated Type